sensor_id;sensor_type;location;lat;lon;timestamp;P1;durP1;ratioP1;P2;durP2;ratioP2
68229;SDS011;55048;52.220;5.160;2023-05-16T00:00:15;12.48;;;1.60;;
68229;SDS011;55048;52.220;5.160;2023-05-16T00:02:40;12.48;;;1.10;;
68229;SDS011;55048;52.220;5.160;2023-05-16T00:05:06;14.68;;;1.10;;
68229;SDS011;55048;52.220;5.160;2023-05-16T00:07:32;11.68;;;0.93;;
68229;SDS011;55048;52.220;5.160;2023-05-16T00:09:58;9.65;;;1.05;;
68229;SDS011;55048;52.220;5.160;2023-05-16T00:12:24;15.65;;;1.60;;
68229;SDS011;55048;52.220;5.160;2023-05-16T00:14:50;9.27;;;0.73;;
68229;SDS011;55048;52.220;5.160;2023-05-16T00:17:16;10.05;;;0.90;;
68229;SDS011;55048;52.220;5.160;2023-05-16T00:19:41;8.43;;;1.10;;
68229;SDS011;55048;52.220;5.160;2023-05-16T00:22:08;10.15;;;0.90;;
68229;SDS011;55048;52.220;5.160;2023-05-16T00:24:35;10.68;;;0.80;;
68229;SDS011;55048;52.220;5.160;2023-05-16T00:27:00;12.02;;;1.00;;
68229;SDS011;55048;52.220;5.160;2023-05-16T00:29:27;12.15;;;0.90;;
68229;SDS011;55048;52.220;5.160;2023-05-16T00:31:56;20.80;;;1.75;;
68229;SDS011;55048;52.220;5.160;2023-05-16T00:34:22;11.60;;;0.93;;
68229;SDS011;55048;52.220;5.160;2023-05-16T00:36:50;11.73;;;0.88;;
68229;SDS011;55048;52.220;5.160;2023-05-16T00:39:16;11.30;;;0.90;;
68229;SDS011;55048;52.220;5.160;2023-05-16T00:41:42;10.80;;;0.90;;
68229;SDS011;55048;52.220;5.160;2023-05-16T00:44:08;8.93;;;0.85;;
68229;SDS011;55048;52.220;5.160;2023-05-16T00:46:34;9.85;;;1.00;;
68229;SDS011;55048;52.220;5.160;2023-05-16T00:48:59;10.43;;;1.02;;
68229;SDS011;55048;52.220;5.160;2023-05-16T00:51:26;14.88;;;0.90;;
68229;SDS011;55048;52.220;5.160;2023-05-16T00:53:52;5.70;;;0.75;;
68229;SDS011;55048;52.220;5.160;2023-05-16T00:56:20;15.93;;;0.98;;
68229;SDS011;55048;52.220;5.160;2023-05-16T00:58:46;13.13;;;1.08;;
68229;SDS011;55048;52.220;5.160;2023-05-16T01:01:12;12.02;;;1.17;;
68229;SDS011;55048;52.220;5.160;2023-05-16T01:03:38;10.95;;;0.80;;
68229;SDS011;55048;52.220;5.160;2023-05-16T01:06:04;9.27;;;0.80;;
68229;SDS011;55048;52.220;5.160;2023-05-16T01:08:30;13.50;;;0.98;;
68229;SDS011;55048;52.220;5.160;2023-05-16T01:11:07;13.75;;;0.98;;
68229;SDS011;55048;52.220;5.160;2023-05-16T01:13:54;10.02;;;0.75;;
68229;SDS011;55048;52.220;5.160;2023-05-16T01:16:29;12.38;;;1.08;;
68229;SDS011;55048;52.220;5.160;2023-05-16T01:19:27;17.25;;;1.35;;
68229;SDS011;55048;52.220;5.160;2023-05-16T01:27:26;13.18;;;1.02;;
68229;SDS011;55048;52.220;5.160;2023-05-16T01:29:57;16.80;;;0.80;;
68229;SDS011;55048;52.220;5.160;2023-05-16T01:32:25;15.38;;;1.08;;
68229;SDS011;55048;52.220;5.160;2023-05-16T01:34:50;15.13;;;1.15;;
68229;SDS011;55048;52.220;5.160;2023-05-16T01:37:30;9.32;;;0.85;;
68229;SDS011;55048;52.220;5.160;2023-05-16T01:40:08;8.20;;;0.93;;
68229;SDS011;55048;52.220;5.160;2023-05-16T01:42:42;8.63;;;0.90;;
68229;SDS011;55048;52.220;5.160;2023-05-16T01:45:17;17.27;;;1.23;;
68229;SDS011;55048;52.220;5.160;2023-05-16T01:47:55;9.68;;;0.85;;
68229;SDS011;55048;52.220;5.160;2023-05-16T01:50:25;12.43;;;1.02;;
68229;SDS011;55048;52.220;5.160;2023-05-16T01:52:59;13.55;;;0.85;;
68229;SDS011;55048;52.220;5.160;2023-05-16T01:55:36;10.10;;;1.10;;
68229;SDS011;55048;52.220;5.160;2023-05-16T01:58:09;6.38;;;0.65;;
68229;SDS011;55048;52.220;5.160;2023-05-16T02:00:36;17.50;;;2.40;;
68229;SDS011;55048;52.220;5.160;2023-05-16T02:03:02;11.57;;;0.80;;
68229;SDS011;55048;52.220;5.160;2023-05-16T02:05:28;8.68;;;1.02;;
68229;SDS011;55048;52.220;5.160;2023-05-16T02:07:53;8.52;;;1.00;;
68229;SDS011;55048;52.220;5.160;2023-05-16T02:10:20;11.70;;;0.90;;
68229;SDS011;55048;52.220;5.160;2023-05-16T02:12:46;9.77;;;0.80;;
68229;SDS011;55048;52.220;5.160;2023-05-16T02:15:11;8.63;;;1.23;;
68229;SDS011;55048;52.220;5.160;2023-05-16T02:17:38;14.38;;;1.27;;
68229;SDS011;55048;52.220;5.160;2023-05-16T02:20:04;14.32;;;1.10;;
68229;SDS011;55048;52.220;5.160;2023-05-16T02:22:32;10.30;;;1.90;;
68229;SDS011;55048;52.220;5.160;2023-05-16T02:24:59;17.85;;;1.42;;
68229;SDS011;55048;52.220;5.160;2023-05-16T02:27:25;17.70;;;1.40;;
68229;SDS011;55048;52.220;5.160;2023-05-16T02:29:50;14.40;;;1.10;;
68229;SDS011;55048;52.220;5.160;2023-05-16T02:32:16;7.88;;;0.80;;
68229;SDS011;55048;52.220;5.160;2023-05-16T02:34:41;7.65;;;1.00;;
68229;SDS011;55048;52.220;5.160;2023-05-16T02:37:07;8.13;;;0.80;;
68229;SDS011;55048;52.220;5.160;2023-05-16T02:39:32;12.73;;;1.55;;
68229;SDS011;55048;52.220;5.160;2023-05-16T02:41:58;16.98;;;1.00;;
68229;SDS011;55048;52.220;5.160;2023-05-16T02:44:23;18.42;;;0.90;;
68229;SDS011;55048;52.220;5.160;2023-05-16T02:46:48;11.98;;;1.27;;
68229;SDS011;55048;52.220;5.160;2023-05-16T02:49:14;9.63;;;1.10;;
68229;SDS011;55048;52.220;5.160;2023-05-16T02:51:39;16.95;;;1.55;;
68229;SDS011;55048;52.220;5.160;2023-05-16T02:54:05;10.70;;;0.82;;
68229;SDS011;55048;52.220;5.160;2023-05-16T02:56:33;9.40;;;0.98;;
68229;SDS011;55048;52.220;5.160;2023-05-16T02:58:58;16.98;;;1.20;;
68229;SDS011;55048;52.220;5.160;2023-05-16T03:01:24;15.93;;;1.60;;
68229;SDS011;55048;52.220;5.160;2023-05-16T03:03:49;13.88;;;0.80;;
68229;SDS011;55048;52.220;5.160;2023-05-16T03:06:15;7.65;;;0.60;;
68229;SDS011;55048;52.220;5.160;2023-05-16T03:08:40;12.10;;;0.90;;
68229;SDS011;55048;52.220;5.160;2023-05-16T03:11:06;11.80;;;1.77;;
68229;SDS011;55048;52.220;5.160;2023-05-16T03:13:31;8.93;;;1.35;;
68229;SDS011;55048;52.220;5.160;2023-05-16T03:15:57;12.32;;;1.40;;
68229;SDS011;55048;52.220;5.160;2023-05-16T03:18:23;13.65;;;1.02;;
68229;SDS011;55048;52.220;5.160;2023-05-16T03:20:48;8.68;;;0.77;;
68229;SDS011;55048;52.220;5.160;2023-05-16T03:23:17;12.95;;;1.02;;
68229;SDS011;55048;52.220;5.160;2023-05-16T03:25:43;11.57;;;1.00;;
68229;SDS011;55048;52.220;5.160;2023-05-16T03:28:10;19.25;;;1.35;;
68229;SDS011;55048;52.220;5.160;2023-05-16T03:30:36;16.90;;;1.17;;
68229;SDS011;55048;52.220;5.160;2023-05-16T03:33:01;12.35;;;1.08;;
68229;SDS011;55048;52.220;5.160;2023-05-16T03:35:28;5.43;;;0.75;;
68229;SDS011;55048;52.220;5.160;2023-05-16T03:37:55;10.98;;;0.80;;
68229;SDS011;55048;52.220;5.160;2023-05-16T03:40:20;13.35;;;1.02;;
68229;SDS011;55048;52.220;5.160;2023-05-16T03:42:46;15.93;;;0.88;;
68229;SDS011;55048;52.220;5.160;2023-05-16T03:45:11;8.48;;;1.05;;
68229;SDS011;55048;52.220;5.160;2023-05-16T03:47:37;14.05;;;1.20;;
68229;SDS011;55048;52.220;5.160;2023-05-16T03:50:03;11.77;;;0.85;;
68229;SDS011;55048;52.220;5.160;2023-05-16T03:52:29;12.75;;;0.90;;
68229;SDS011;55048;52.220;5.160;2023-05-16T03:54:54;13.50;;;0.95;;
68229;SDS011;55048;52.220;5.160;2023-05-16T03:57:20;12.18;;;0.90;;
68229;SDS011;55048;52.220;5.160;2023-05-16T03:59:45;7.70;;;0.90;;
68229;SDS011;55048;52.220;5.160;2023-05-16T04:02:10;12.02;;;0.80;;
68229;SDS011;55048;52.220;5.160;2023-05-16T04:04:36;5.57;;;0.60;;
68229;SDS011;55048;52.220;5.160;2023-05-16T04:07:01;10.85;;;0.90;;
68229;SDS011;55048;52.220;5.160;2023-05-16T04:09:27;10.05;;;0.70;;
68229;SDS011;55048;52.220;5.160;2023-05-16T04:11:53;15.60;;;1.20;;
68229;SDS011;55048;52.220;5.160;2023-05-16T04:14:24;9.13;;;0.80;;
68229;SDS011;55048;52.220;5.160;2023-05-16T04:16:49;11.25;;;1.27;;
68229;SDS011;55048;52.220;5.160;2023-05-16T04:19:15;7.55;;;0.70;;
68229;SDS011;55048;52.220;5.160;2023-05-16T04:21:41;13.25;;;1.50;;
68229;SDS011;55048;52.220;5.160;2023-05-16T04:24:06;12.02;;;0.85;;
68229;SDS011;55048;52.220;5.160;2023-05-16T04:26:32;8.75;;;0.88;;
68229;SDS011;55048;52.220;5.160;2023-05-16T04:28:58;10.23;;;0.70;;
68229;SDS011;55048;52.220;5.160;2023-05-16T04:31:26;11.63;;;1.08;;
68229;SDS011;55048;52.220;5.160;2023-05-16T04:33:52;12.63;;;0.95;;
68229;SDS011;55048;52.220;5.160;2023-05-16T04:36:18;5.47;;;0.60;;
68229;SDS011;55048;52.220;5.160;2023-05-16T04:38:44;7.15;;;0.82;;
68229;SDS011;55048;52.220;5.160;2023-05-16T04:41:11;11.82;;;0.90;;
68229;SDS011;55048;52.220;5.160;2023-05-16T04:43:37;7.43;;;0.93;;
68229;SDS011;55048;52.220;5.160;2023-05-16T04:46:02;6.50;;;0.70;;
68229;SDS011;55048;52.220;5.160;2023-05-16T04:48:28;12.00;;;0.90;;
68229;SDS011;55048;52.220;5.160;2023-05-16T04:50:53;14.05;;;0.90;;
68229;SDS011;55048;52.220;5.160;2023-05-16T04:53:19;13.75;;;0.80;;
68229;SDS011;55048;52.220;5.160;2023-05-16T04:55:45;9.52;;;0.80;;
68229;SDS011;55048;52.220;5.160;2023-05-16T04:58:11;14.07;;;0.85;;
68229;SDS011;55048;52.220;5.160;2023-05-16T05:00:37;12.32;;;1.80;;
68229;SDS011;55048;52.220;5.160;2023-05-16T05:03:04;12.43;;;1.00;;
68229;SDS011;55048;52.220;5.160;2023-05-16T05:05:30;8.70;;;0.90;;
68229;SDS011;55048;52.220;5.160;2023-05-16T05:07:56;8.88;;;0.70;;
68229;SDS011;55048;52.220;5.160;2023-05-16T05:10:22;8.18;;;0.85;;
68229;SDS011;55048;52.220;5.160;2023-05-16T05:12:47;14.93;;;1.00;;
68229;SDS011;55048;52.220;5.160;2023-05-16T05:15:13;8.88;;;0.77;;
68229;SDS011;55048;52.220;5.160;2023-05-16T05:17:39;9.98;;;0.90;;
68229;SDS011;55048;52.220;5.160;2023-05-16T05:20:05;10.45;;;0.80;;
68229;SDS011;55048;52.220;5.160;2023-05-16T05:22:31;10.57;;;1.00;;
68229;SDS011;55048;52.220;5.160;2023-05-16T05:24:57;6.05;;;0.52;;
68229;SDS011;55048;52.220;5.160;2023-05-16T05:27:23;10.20;;;0.80;;
68229;SDS011;55048;52.220;5.160;2023-05-16T05:29:49;5.18;;;1.13;;
68229;SDS011;55048;52.220;5.160;2023-05-16T05:32:15;7.70;;;0.77;;
68229;SDS011;55048;52.220;5.160;2023-05-16T05:34:41;15.70;;;1.42;;
68229;SDS011;55048;52.220;5.160;2023-05-16T05:37:07;10.20;;;1.33;;
68229;SDS011;55048;52.220;5.160;2023-05-16T05:39:33;4.68;;;0.60;;
68229;SDS011;55048;52.220;5.160;2023-05-16T05:41:58;12.32;;;0.90;;
68229;SDS011;55048;52.220;5.160;2023-05-16T05:44:26;6.07;;;0.60;;
68229;SDS011;55048;52.220;5.160;2023-05-16T05:46:51;7.00;;;0.63;;
68229;SDS011;55048;52.220;5.160;2023-05-16T05:49:17;7.53;;;0.63;;
68229;SDS011;55048;52.220;5.160;2023-05-16T05:51:42;10.93;;;0.80;;
68229;SDS011;55048;52.220;5.160;2023-05-16T05:54:08;5.93;;;0.50;;
68229;SDS011;55048;52.220;5.160;2023-05-16T05:56:33;7.45;;;0.68;;
68229;SDS011;55048;52.220;5.160;2023-05-16T05:58:59;9.30;;;0.63;;
68229;SDS011;55048;52.220;5.160;2023-05-16T06:01:25;9.63;;;0.80;;
68229;SDS011;55048;52.220;5.160;2023-05-16T06:03:51;6.50;;;0.50;;
68229;SDS011;55048;52.220;5.160;2023-05-16T06:06:16;6.88;;;0.70;;
68229;SDS011;55048;52.220;5.160;2023-05-16T06:08:42;8.93;;;0.50;;
68229;SDS011;55048;52.220;5.160;2023-05-16T06:11:07;10.57;;;0.70;;
68229;SDS011;55048;52.220;5.160;2023-05-16T06:13:33;8.98;;;0.80;;
68229;SDS011;55048;52.220;5.160;2023-05-16T06:15:58;7.20;;;0.50;;
68229;SDS011;55048;52.220;5.160;2023-05-16T06:18:23;13.63;;;0.75;;
68229;SDS011;55048;52.220;5.160;2023-05-16T06:20:49;7.22;;;0.80;;
68229;SDS011;55048;52.220;5.160;2023-05-16T06:23:16;6.78;;;0.65;;
68229;SDS011;55048;52.220;5.160;2023-05-16T06:25:41;4.57;;;0.50;;
68229;SDS011;55048;52.220;5.160;2023-05-16T06:28:07;6.30;;;0.60;;
68229;SDS011;55048;52.220;5.160;2023-05-16T06:30:32;5.68;;;0.60;;
68229;SDS011;55048;52.220;5.160;2023-05-16T06:32:57;3.97;;;0.90;;
68229;SDS011;55048;52.220;5.160;2023-05-16T06:35:23;8.38;;;0.70;;
68229;SDS011;55048;52.220;5.160;2023-05-16T06:37:48;10.07;;;1.10;;
68229;SDS011;55048;52.220;5.160;2023-05-16T06:40:14;6.15;;;0.75;;
68229;SDS011;55048;52.220;5.160;2023-05-16T06:42:39;5.72;;;0.50;;
68229;SDS011;55048;52.220;5.160;2023-05-16T06:45:05;11.73;;;0.52;;
68229;SDS011;55048;52.220;5.160;2023-05-16T06:47:31;3.13;;;0.30;;
68229;SDS011;55048;52.220;5.160;2023-05-16T06:49:57;4.40;;;0.55;;
68229;SDS011;55048;52.220;5.160;2023-05-16T06:52:22;5.88;;;0.40;;
68229;SDS011;55048;52.220;5.160;2023-05-16T06:54:47;7.70;;;0.40;;
68229;SDS011;55048;52.220;5.160;2023-05-16T06:57:13;6.30;;;0.55;;
68229;SDS011;55048;52.220;5.160;2023-05-16T06:59:38;8.88;;;0.60;;
68229;SDS011;55048;52.220;5.160;2023-05-16T07:02:04;5.93;;;0.47;;
68229;SDS011;55048;52.220;5.160;2023-05-16T07:04:30;7.28;;;0.47;;
68229;SDS011;55048;52.220;5.160;2023-05-16T07:06:55;5.35;;;0.40;;
68229;SDS011;55048;52.220;5.160;2023-05-16T07:09:21;6.15;;;0.50;;
68229;SDS011;55048;52.220;5.160;2023-05-16T07:11:46;8.18;;;0.50;;
68229;SDS011;55048;52.220;5.160;2023-05-16T07:14:12;4.78;;;0.50;;
68229;SDS011;55048;52.220;5.160;2023-05-16T07:16:37;5.47;;;0.55;;
68229;SDS011;55048;52.220;5.160;2023-05-16T07:19:03;6.00;;;0.43;;
68229;SDS011;55048;52.220;5.160;2023-05-16T07:21:28;5.65;;;0.38;;
68229;SDS011;55048;52.220;5.160;2023-05-16T07:23:53;4.78;;;0.50;;
68229;SDS011;55048;52.220;5.160;2023-05-16T07:26:19;8.23;;;0.57;;
68229;SDS011;55048;52.220;5.160;2023-05-16T07:28:47;3.85;;;0.40;;
68229;SDS011;55048;52.220;5.160;2023-05-16T07:31:16;4.83;;;0.40;;
68229;SDS011;55048;52.220;5.160;2023-05-16T07:33:41;5.75;;;0.43;;
68229;SDS011;55048;52.220;5.160;2023-05-16T07:36:07;3.60;;;0.25;;
68229;SDS011;55048;52.220;5.160;2023-05-16T07:38:33;5.22;;;0.40;;
68229;SDS011;55048;52.220;5.160;2023-05-16T07:40:59;6.95;;;0.57;;
68229;SDS011;55048;52.220;5.160;2023-05-16T07:43:25;5.57;;;0.43;;
68229;SDS011;55048;52.220;5.160;2023-05-16T07:45:50;3.38;;;0.43;;
68229;SDS011;55048;52.220;5.160;2023-05-16T07:48:16;6.25;;;0.55;;
68229;SDS011;55048;52.220;5.160;2023-05-16T07:50:42;7.18;;;0.70;;
68229;SDS011;55048;52.220;5.160;2023-05-16T07:53:07;4.07;;;0.40;;
68229;SDS011;55048;52.220;5.160;2023-05-16T07:55:33;8.50;;;0.35;;
68229;SDS011;55048;52.220;5.160;2023-05-16T07:57:59;3.25;;;0.30;;
68229;SDS011;55048;52.220;5.160;2023-05-16T08:00:24;3.40;;;0.32;;
68229;SDS011;55048;52.220;5.160;2023-05-16T08:02:50;4.55;;;0.50;;
68229;SDS011;55048;52.220;5.160;2023-05-16T08:05:15;6.72;;;0.40;;
68229;SDS011;55048;52.220;5.160;2023-05-16T08:07:41;5.97;;;0.40;;
68229;SDS011;55048;52.220;5.160;2023-05-16T08:10:06;8.63;;;0.47;;
68229;SDS011;55048;52.220;5.160;2023-05-16T08:12:32;7.57;;;0.50;;
68229;SDS011;55048;52.220;5.160;2023-05-16T08:14:58;7.47;;;0.60;;
68229;SDS011;55048;52.220;5.160;2023-05-16T08:17:23;4.20;;;0.47;;
68229;SDS011;55048;52.220;5.160;2023-05-16T08:19:48;4.00;;;0.32;;
68229;SDS011;55048;52.220;5.160;2023-05-16T08:22:14;7.38;;;0.43;;
68229;SDS011;55048;52.220;5.160;2023-05-16T08:24:39;2.10;;;0.40;;
68229;SDS011;55048;52.220;5.160;2023-05-16T08:27:05;3.83;;;0.30;;
68229;SDS011;55048;52.220;5.160;2023-05-16T08:29:30;7.10;;;0.63;;
68229;SDS011;55048;52.220;5.160;2023-05-16T08:31:56;6.05;;;0.50;;
68229;SDS011;55048;52.220;5.160;2023-05-16T08:34:21;5.63;;;0.30;;
68229;SDS011;55048;52.220;5.160;2023-05-16T08:36:47;8.45;;;0.50;;
68229;SDS011;55048;52.220;5.160;2023-05-16T08:39:13;4.97;;;0.32;;
68229;SDS011;55048;52.220;5.160;2023-05-16T08:41:38;4.05;;;0.35;;
68229;SDS011;55048;52.220;5.160;2023-05-16T08:44:04;2.65;;;0.35;;
68229;SDS011;55048;52.220;5.160;2023-05-16T08:46:30;9.50;;;0.50;;
68229;SDS011;55048;52.220;5.160;2023-05-16T08:48:58;6.75;;;0.40;;
68229;SDS011;55048;52.220;5.160;2023-05-16T08:51:25;23.83;;;0.70;;
68229;SDS011;55048;52.220;5.160;2023-05-16T08:53:59;3.15;;;0.30;;
68229;SDS011;55048;52.220;5.160;2023-05-16T08:56:27;7.57;;;0.43;;
68229;SDS011;55048;52.220;5.160;2023-05-16T08:58:53;4.05;;;0.45;;
68229;SDS011;55048;52.220;5.160;2023-05-16T09:01:22;5.30;;;0.30;;
68229;SDS011;55048;52.220;5.160;2023-05-16T09:03:51;7.35;;;0.40;;
68229;SDS011;55048;52.220;5.160;2023-05-16T09:06:17;9.38;;;0.60;;
68229;SDS011;55048;52.220;5.160;2023-05-16T09:08:43;5.57;;;0.40;;
68229;SDS011;55048;52.220;5.160;2023-05-16T09:11:08;7.68;;;0.40;;
68229;SDS011;55048;52.220;5.160;2023-05-16T09:13:34;3.85;;;0.30;;
68229;SDS011;55048;52.220;5.160;2023-05-16T09:16:12;3.17;;;0.43;;
68229;SDS011;55048;52.220;5.160;2023-05-16T09:18:45;8.52;;;0.60;;
68229;SDS011;55048;52.220;5.160;2023-05-16T09:21:11;5.82;;;0.40;;
68229;SDS011;55048;52.220;5.160;2023-05-16T09:23:38;4.60;;;0.50;;
68229;SDS011;55048;52.220;5.160;2023-05-16T09:26:04;2.97;;;0.30;;
68229;SDS011;55048;52.220;5.160;2023-05-16T09:28:32;7.13;;;0.35;;
68229;SDS011;55048;52.220;5.160;2023-05-16T09:30:58;5.13;;;0.40;;
68229;SDS011;55048;52.220;5.160;2023-05-16T09:33:27;3.83;;;0.50;;
68229;SDS011;55048;52.220;5.160;2023-05-16T09:35:54;4.90;;;0.40;;
68229;SDS011;55048;52.220;5.160;2023-05-16T09:38:24;4.57;;;0.38;;
68229;SDS011;55048;52.220;5.160;2023-05-16T09:40:51;2.30;;;0.47;;
68229;SDS011;55048;52.220;5.160;2023-05-16T09:43:21;4.35;;;0.50;;
68229;SDS011;55048;52.220;5.160;2023-05-16T09:45:49;10.05;;;0.50;;
68229;SDS011;55048;52.220;5.160;2023-05-16T09:48:15;4.82;;;0.57;;
68229;SDS011;55048;52.220;5.160;2023-05-16T09:50:45;5.10;;;0.77;;
68229;SDS011;55048;52.220;5.160;2023-05-16T09:53:13;5.22;;;0.40;;
68229;SDS011;55048;52.220;5.160;2023-05-16T09:55:39;4.95;;;0.30;;
68229;SDS011;55048;52.220;5.160;2023-05-16T09:58:04;6.38;;;0.40;;
68229;SDS011;55048;52.220;5.160;2023-05-16T10:00:31;5.53;;;0.50;;
68229;SDS011;55048;52.220;5.160;2023-05-16T10:02:58;3.60;;;0.40;;
68229;SDS011;55048;52.220;5.160;2023-05-16T10:05:27;5.82;;;0.70;;
68229;SDS011;55048;52.220;5.160;2023-05-16T10:07:56;6.68;;;0.40;;
68229;SDS011;55048;52.220;5.160;2023-05-16T10:10:22;3.72;;;0.35;;
68229;SDS011;55048;52.220;5.160;2023-05-16T10:12:49;4.35;;;0.40;;
68229;SDS011;55048;52.220;5.160;2023-05-16T10:15:15;4.95;;;0.40;;
68229;SDS011;55048;52.220;5.160;2023-05-16T10:17:42;3.80;;;0.50;;
68229;SDS011;55048;52.220;5.160;2023-05-16T10:20:10;6.47;;;0.52;;
68229;SDS011;55048;52.220;5.160;2023-05-16T10:22:39;3.55;;;0.30;;
68229;SDS011;55048;52.220;5.160;2023-05-16T10:25:25;3.63;;;0.50;;
68229;SDS011;55048;52.220;5.160;2023-05-16T10:27:57;10.40;;;0.45;;
68229;SDS011;55048;52.220;5.160;2023-05-16T10:30:23;2.38;;;0.40;;
68229;SDS011;55048;52.220;5.160;2023-05-16T10:32:49;6.13;;;0.50;;
68229;SDS011;55048;52.220;5.160;2023-05-16T10:35:16;4.93;;;0.40;;
68229;SDS011;55048;52.220;5.160;2023-05-16T10:40:55;6.85;;;0.43;;
68229;SDS011;55048;52.220;5.160;2023-05-16T10:43:30;5.63;;;0.38;;
68229;SDS011;55048;52.220;5.160;2023-05-16T10:48:35;3.30;;;0.50;;
68229;SDS011;55048;52.220;5.160;2023-05-16T10:51:02;5.43;;;0.65;;
68229;SDS011;55048;52.220;5.160;2023-05-16T10:53:32;4.53;;;0.30;;
68229;SDS011;55048;52.220;5.160;2023-05-16T11:01:18;4.95;;;0.68;;
68229;SDS011;55048;52.220;5.160;2023-05-16T11:11:45;4.45;;;0.38;;
68229;SDS011;55048;52.220;5.160;2023-05-16T11:14:25;3.83;;;0.30;;
68229;SDS011;55048;52.220;5.160;2023-05-16T11:19:41;4.20;;;0.30;;
68229;SDS011;55048;52.220;5.160;2023-05-16T11:32:35;3.63;;;0.30;;
68229;SDS011;55048;52.220;5.160;2023-05-16T11:35:02;5.10;;;0.40;;
68229;SDS011;55048;52.220;5.160;2023-05-16T11:37:32;5.97;;;0.38;;
68229;SDS011;55048;52.220;5.160;2023-05-16T11:40:03;7.55;;;0.50;;
68229;SDS011;55048;52.220;5.160;2023-05-16T11:42:42;7.75;;;0.50;;
68229;SDS011;55048;52.220;5.160;2023-05-16T11:45:09;7.43;;;0.47;;
68229;SDS011;55048;52.220;5.160;2023-05-16T11:47:36;6.30;;;0.40;;
68229;SDS011;55048;52.220;5.160;2023-05-16T11:50:04;6.53;;;0.50;;
68229;SDS011;55048;52.220;5.160;2023-05-16T11:52:31;5.68;;;0.38;;
68229;SDS011;55048;52.220;5.160;2023-05-16T11:54:57;3.15;;;0.40;;
68229;SDS011;55048;52.220;5.160;2023-05-16T11:57:25;5.88;;;0.40;;
68229;SDS011;55048;52.220;5.160;2023-05-16T11:59:51;5.55;;;0.50;;
68229;SDS011;55048;52.220;5.160;2023-05-16T12:02:18;4.65;;;0.40;;
68229;SDS011;55048;52.220;5.160;2023-05-16T12:04:45;5.47;;;0.52;;
68229;SDS011;55048;52.220;5.160;2023-05-16T12:07:13;3.65;;;0.50;;
68229;SDS011;55048;52.220;5.160;2023-05-16T12:09:39;5.20;;;0.50;;
68229;SDS011;55048;52.220;5.160;2023-05-16T12:12:04;9.30;;;0.60;;
68229;SDS011;55048;52.220;5.160;2023-05-16T12:14:31;6.47;;;0.50;;
68229;SDS011;55048;52.220;5.160;2023-05-16T12:16:56;5.65;;;0.40;;
68229;SDS011;55048;52.220;5.160;2023-05-16T12:19:22;5.22;;;0.50;;
68229;SDS011;55048;52.220;5.160;2023-05-16T12:21:51;2.95;;;0.40;;
68229;SDS011;55048;52.220;5.160;2023-05-16T12:24:18;5.35;;;0.45;;
68229;SDS011;55048;52.220;5.160;2023-05-16T12:26:43;4.25;;;0.60;;
68229;SDS011;55048;52.220;5.160;2023-05-16T12:29:09;3.97;;;0.40;;
68229;SDS011;55048;52.220;5.160;2023-05-16T12:31:36;6.32;;;0.40;;
68229;SDS011;55048;52.220;5.160;2023-05-16T12:34:03;13.40;;;0.70;;
68229;SDS011;55048;52.220;5.160;2023-05-16T12:36:32;7.47;;;0.85;;
68229;SDS011;55048;52.220;5.160;2023-05-16T12:38:59;7.85;;;0.65;;
68229;SDS011;55048;52.220;5.160;2023-05-16T12:41:27;5.90;;;0.40;;
68229;SDS011;55048;52.220;5.160;2023-05-16T12:44:05;5.97;;;0.65;;
68229;SDS011;55048;52.220;5.160;2023-05-16T12:49:10;5.60;;;0.40;;
68229;SDS011;55048;52.220;5.160;2023-05-16T12:51:36;4.20;;;0.45;;
68229;SDS011;55048;52.220;5.160;2023-05-16T12:54:11;2.53;;;0.40;;
68229;SDS011;55048;52.220;5.160;2023-05-16T12:56:37;5.45;;;0.98;;
68229;SDS011;55048;52.220;5.160;2023-05-16T12:59:06;5.70;;;0.60;;
68229;SDS011;55048;52.220;5.160;2023-05-16T13:01:33;8.02;;;0.40;;
68229;SDS011;55048;52.220;5.160;2023-05-16T13:03:59;4.05;;;0.40;;
68229;SDS011;55048;52.220;5.160;2023-05-16T13:06:25;4.35;;;0.52;;
68229;SDS011;55048;52.220;5.160;2023-05-16T13:08:51;5.60;;;0.50;;
68229;SDS011;55048;52.220;5.160;2023-05-16T13:11:16;4.05;;;0.40;;
68229;SDS011;55048;52.220;5.160;2023-05-16T13:13:43;2.10;;;0.50;;
68229;SDS011;55048;52.220;5.160;2023-05-16T13:16:09;3.38;;;0.30;;
68229;SDS011;55048;52.220;5.160;2023-05-16T13:18:34;2.92;;;0.28;;
68229;SDS011;55048;52.220;5.160;2023-05-16T13:21:01;7.35;;;0.60;;
68229;SDS011;55048;52.220;5.160;2023-05-16T13:23:28;5.47;;;0.40;;
68229;SDS011;55048;52.220;5.160;2023-05-16T13:25:54;2.70;;;0.30;;
68229;SDS011;55048;52.220;5.160;2023-05-16T13:28:20;3.28;;;0.40;;
68229;SDS011;55048;52.220;5.160;2023-05-16T13:30:45;5.28;;;0.60;;
68229;SDS011;55048;52.220;5.160;2023-05-16T13:33:11;4.28;;;0.40;;
68229;SDS011;55048;52.220;5.160;2023-05-16T13:35:36;5.30;;;0.40;;
68229;SDS011;55048;52.220;5.160;2023-05-16T13:38:02;5.80;;;0.45;;
68229;SDS011;55048;52.220;5.160;2023-05-16T13:40:30;5.03;;;0.40;;
68229;SDS011;55048;52.220;5.160;2023-05-16T13:42:56;5.80;;;0.50;;
68229;SDS011;55048;52.220;5.160;2023-05-16T13:45:22;4.88;;;0.52;;
68229;SDS011;55048;52.220;5.160;2023-05-16T13:47:47;2.90;;;0.40;;
68229;SDS011;55048;52.220;5.160;2023-05-16T13:50:13;4.40;;;0.40;;
68229;SDS011;55048;52.220;5.160;2023-05-16T13:52:38;5.50;;;0.50;;
68229;SDS011;55048;52.220;5.160;2023-05-16T13:55:16;47.20;;;1.95;;
68229;SDS011;55048;52.220;5.160;2023-05-16T13:57:42;3.75;;;0.50;;
68229;SDS011;55048;52.220;5.160;2023-05-16T14:00:08;2.30;;;0.30;;
68229;SDS011;55048;52.220;5.160;2023-05-16T14:02:40;6.28;;;0.30;;
68229;SDS011;55048;52.220;5.160;2023-05-16T14:05:07;1.83;;;0.40;;
68229;SDS011;55048;52.220;5.160;2023-05-16T14:07:33;3.28;;;0.30;;
68229;SDS011;55048;52.220;5.160;2023-05-16T14:09:59;3.40;;;0.47;;
68229;SDS011;55048;52.220;5.160;2023-05-16T14:12:25;3.60;;;0.35;;
68229;SDS011;55048;52.220;5.160;2023-05-16T14:14:54;3.88;;;0.40;;
68229;SDS011;55048;52.220;5.160;2023-05-16T14:17:37;6.53;;;0.50;;
68229;SDS011;55048;52.220;5.160;2023-05-16T14:20:03;2.20;;;0.20;;
68229;SDS011;55048;52.220;5.160;2023-05-16T14:22:33;5.78;;;0.50;;
68229;SDS011;55048;52.220;5.160;2023-05-16T14:24:59;3.83;;;0.40;;
68229;SDS011;55048;52.220;5.160;2023-05-16T14:27:24;3.55;;;0.40;;
68229;SDS011;55048;52.220;5.160;2023-05-16T14:29:49;6.00;;;0.60;;
68229;SDS011;55048;52.220;5.160;2023-05-16T14:32:26;4.55;;;0.43;;
68229;SDS011;55048;52.220;5.160;2023-05-16T14:34:51;4.57;;;0.40;;
68229;SDS011;55048;52.220;5.160;2023-05-16T14:37:16;3.00;;;0.50;;
68229;SDS011;55048;52.220;5.160;2023-05-16T14:39:43;9.88;;;0.50;;
68229;SDS011;55048;52.220;5.160;2023-05-16T14:42:10;2.72;;;0.40;;
68229;SDS011;55048;52.220;5.160;2023-05-16T14:44:36;3.75;;;0.38;;
68229;SDS011;55048;52.220;5.160;2023-05-16T14:47:02;4.30;;;0.38;;
68229;SDS011;55048;52.220;5.160;2023-05-16T14:49:28;1.92;;;0.30;;
68229;SDS011;55048;52.220;5.160;2023-05-16T14:51:54;4.50;;;0.40;;
68229;SDS011;55048;52.220;5.160;2023-05-16T14:54:20;2.03;;;0.25;;
68229;SDS011;55048;52.220;5.160;2023-05-16T14:56:46;4.05;;;0.32;;
68229;SDS011;55048;52.220;5.160;2023-05-16T14:59:11;4.28;;;0.40;;
68229;SDS011;55048;52.220;5.160;2023-05-16T15:01:37;3.13;;;0.50;;
68229;SDS011;55048;52.220;5.160;2023-05-16T15:04:02;3.17;;;0.60;;
68229;SDS011;55048;52.220;5.160;2023-05-16T15:06:31;5.00;;;0.40;;
68229;SDS011;55048;52.220;5.160;2023-05-16T15:08:56;4.30;;;0.30;;
68229;SDS011;55048;52.220;5.160;2023-05-16T15:11:21;6.95;;;0.40;;
68229;SDS011;55048;52.220;5.160;2023-05-16T15:13:47;3.28;;;0.40;;
68229;SDS011;55048;52.220;5.160;2023-05-16T15:16:12;4.15;;;0.30;;
68229;SDS011;55048;52.220;5.160;2023-05-16T15:18:38;8.05;;;0.65;;
68229;SDS011;55048;52.220;5.160;2023-05-16T15:21:04;3.28;;;0.50;;